createdAt,value
2019-05-25T00:00:13.416Z,14.34
2019-05-25T00:01:13.404Z,14.39
2019-05-25T00:02:13.418Z,14.31
2019-05-25T00:03:13.388Z,14.49
2019-05-25T00:04:13.407Z,14.48
2019-05-25T00:05:13.367Z,14.52
2019-05-25T00:06:13.374Z,14.44
2019-05-25T00:07:13.359Z,14.49
2019-05-25T00:08:13.363Z,14.36
2019-05-25T00:09:13.328Z,14.23
2019-05-25T00:10:13.367Z,14.23
2019-05-25T00:11:13.304Z,14.06
2019-05-25T00:12:13.323Z,14.05
2019-05-25T00:13:13.298Z,13.84
2019-05-25T00:14:13.270Z,13.73
2019-05-25T00:15:13.268Z,13.71
2019-05-25T00:16:13.288Z,13.73
2019-05-25T00:17:13.276Z,13.86
2019-05-25T00:18:13.253Z,13.90
2019-05-25T00:19:13.217Z,13.96
2019-05-25T00:20:13.205Z,14.20
2019-05-25T00:21:14.207Z,14.30
2019-05-25T00:22:13.212Z,14.27
2019-05-25T00:23:13.173Z,14.24
2019-05-25T00:24:13.168Z,14.20
2019-05-25T00:25:13.147Z,14.17
2019-05-25T00:26:13.150Z,14.01
2019-05-25T00:27:13.136Z,13.88
2019-05-25T00:28:13.110Z,13.72
2019-05-25T00:29:13.261Z,13.65
2019-05-25T00:31:15.116Z,13.46
2019-05-25T00:32:13.149Z,13.27
2019-05-25T00:33:13.152Z,13.04
2019-05-25T00:34:13.053Z,12.92
2019-05-25T00:35:13.287Z,12.85
2019-05-25T00:36:13.088Z,12.69
2019-05-25T00:37:13.574Z,12.58
2019-05-25T00:38:13.071Z,12.49
2019-05-25T00:39:13.018Z,12.37
2019-05-25T00:40:13.014Z,12.26
2019-05-25T00:41:13.050Z,12.12
2019-05-25T00:42:13.114Z,11.98
2019-05-25T00:43:12.992Z,11.97
2019-05-25T00:44:13.921Z,11.87
2019-05-25T00:45:14.179Z,11.74
2019-05-25T00:46:13.204Z,11.60
2019-05-25T00:47:12.914Z,11.66
2019-05-25T00:48:12.963Z,11.62
2019-05-25T00:49:13.401Z,11.57
2019-05-25T00:50:13.141Z,11.59
2019-05-25T00:51:13.726Z,11.56
2019-05-25T00:52:13.450Z,11.62
2019-05-25T00:53:12.858Z,11.56
2019-05-25T00:54:27.117Z,11.51
2019-05-25T00:55:13.848Z,11.56
2019-05-25T00:56:12.828Z,12.16
2019-05-25T00:57:12.791Z,12.31
2019-05-25T00:58:12.795Z,12.61
2019-05-25T00:59:12.769Z,12.70
2019-05-25T01:00:13.445Z,12.88
2019-05-25T01:01:12.755Z,12.91
2019-05-25T01:02:12.735Z,12.99
2019-05-25T01:03:12.736Z,12.98
2019-05-25T01:04:12.722Z,13.03
2019-05-25T01:05:12.743Z,13.07
2019-05-25T01:06:12.706Z,13.14
2019-05-25T01:07:12.741Z,13.24
2019-05-25T01:08:13.060Z,13.17
2019-05-25T01:09:12.752Z,13.25
2019-05-25T01:10:12.701Z,13.16
2019-05-25T01:11:12.695Z,13.14
2019-05-25T01:12:12.670Z,13.17
2019-05-25T01:13:12.732Z,13.06
2019-05-25T01:14:12.606Z,13.09
2019-05-25T01:15:12.595Z,13.10
2019-05-25T01:16:12.644Z,13.14
2019-05-25T01:17:12.576Z,13.17
2019-05-25T01:18:12.577Z,13.28
2019-05-25T01:19:12.570Z,13.41
2019-05-25T01:20:12.560Z,13.22
2019-05-25T01:21:12.531Z,13.54
2019-05-25T01:22:12.519Z,13.36
2019-05-25T01:23:12.518Z,13.31
2019-05-25T01:24:12.500Z,13.27
2019-05-25T01:25:12.493Z,13.14
2019-05-25T01:26:12.484Z,13.06
2019-05-25T01:27:12.485Z,12.94
2019-05-25T01:28:12.484Z,12.88
2019-05-25T01:29:12.472Z,12.96
2019-05-25T01:30:12.465Z,12.99
2019-05-25T01:31:12.439Z,13.04
2019-05-25T01:32:12.431Z,13.21
2019-05-25T01:33:12.424Z,13.31
2019-05-25T01:34:12.393Z,13.32
2019-05-25T01:35:12.407Z,13.55
2019-05-25T01:36:12.380Z,13.59
2019-05-25T01:37:12.361Z,13.61
2019-05-25T01:38:12.391Z,13.63
2019-05-25T01:39:12.356Z,13.71
2019-05-25T01:40:12.330Z,13.81
2019-05-25T01:41:12.331Z,13.75
2019-05-25T01:42:12.309Z,13.68
2019-05-25T01:43:12.327Z,13.75
2019-05-25T01:44:12.300Z,13.84
2019-05-25T01:45:12.286Z,13.69
2019-05-25T01:46:12.261Z,13.63
2019-05-25T01:47:12.284Z,13.57
2019-05-25T01:48:12.248Z,13.51
2019-05-25T01:49:12.253Z,13.57
2019-05-25T01:50:12.248Z,13.54
2019-05-25T01:51:12.237Z,13.54
2019-05-25T01:52:12.212Z,13.57
2019-05-25T01:53:12.184Z,13.65
2019-05-25T01:54:12.192Z,13.63
2019-05-25T01:55:12.169Z,13.61
2019-05-25T01:56:12.156Z,13.63
2019-05-25T01:57:12.145Z,13.66
2019-05-25T01:58:12.131Z,13.63
2019-05-25T01:59:12.169Z,13.65
2019-05-25T02:00:12.169Z,13.69
2019-05-25T02:01:12.112Z,13.68
2019-05-25T02:02:12.090Z,13.59
2019-05-25T02:03:12.087Z,13.63
2019-05-25T02:04:12.085Z,13.59
2019-05-25T02:05:12.089Z,13.55
2019-05-25T02:06:12.055Z,13.62
2019-05-25T02:07:12.042Z,13.54
2019-05-25T02:08:12.113Z,13.61
2019-05-25T02:09:12.027Z,13.65
2019-05-25T02:10:12.018Z,13.62
2019-05-25T02:11:11.995Z,13.62
2019-05-25T02:12:12.011Z,13.69
2019-05-25T02:13:11.968Z,13.53
2019-05-25T02:14:11.984Z,13.51
2019-05-25T02:15:12.016Z,13.43
2019-05-25T02:16:11.938Z,13.32
2019-05-25T02:17:11.947Z,13.36
2019-05-25T02:18:11.973Z,13.32
2019-05-25T02:19:11.942Z,13.28
2019-05-25T02:20:11.889Z,13.29
2019-05-25T02:21:11.895Z,13.28
2019-05-25T02:22:11.875Z,13.41
2019-05-25T02:23:11.875Z,13.39
2019-05-25T02:24:11.886Z,13.55
2019-05-25T02:25:18.337Z,13.46
2019-05-25T02:26:12.856Z,13.41
2019-05-25T02:27:11.826Z,13.35
2019-05-25T02:28:11.816Z,13.29
2019-05-25T02:29:11.822Z,13.17
2019-05-25T02:30:11.795Z,13.01
2019-05-25T02:31:11.792Z,12.96
2019-05-25T02:32:11.788Z,12.80
2019-05-25T02:33:11.814Z,12.70
2019-05-25T02:34:11.805Z,12.48
2019-05-25T02:35:11.823Z,12.52
2019-05-25T02:36:12.436Z,12.29
2019-05-25T02:37:12.454Z,12.12
2019-05-25T02:38:11.827Z,12.04
2019-05-25T02:39:11.795Z,12.04
2019-05-25T02:40:11.676Z,11.81
2019-05-25T02:41:11.684Z,11.87
2019-05-25T02:42:11.671Z,11.97
2019-05-25T02:43:11.646Z,11.98
2019-05-25T02:44:11.653Z,11.90
2019-05-25T02:45:11.639Z,11.90
2019-05-25T02:46:11.636Z,12.01
2019-05-25T02:47:11.622Z,12.04
2019-05-25T02:48:11.599Z,12.01
2019-05-25T02:49:11.616Z,11.97
2019-05-25T02:50:11.581Z,12.16
2019-05-25T02:51:11.574Z,12.13
2019-05-25T02:52:11.574Z,12.11
2019-05-25T02:53:11.548Z,12.11
2019-05-25T02:54:11.521Z,11.94
2019-05-25T02:55:11.531Z,11.98
2019-05-25T02:56:11.501Z,12.03
2019-05-25T02:57:11.539Z,12.03
2019-05-25T02:58:11.490Z,12.05
2019-05-25T02:59:11.476Z,12.04
2019-05-25T03:00:11.494Z,12.13
2019-05-25T03:01:11.454Z,12.22
2019-05-25T03:02:11.447Z,12.26
2019-05-25T03:03:11.434Z,12.33
2019-05-25T03:04:11.430Z,12.36
2019-05-25T03:05:11.412Z,12.37
2019-05-25T03:06:11.750Z,12.40
2019-05-25T03:07:11.378Z,12.30
2019-05-25T03:08:11.366Z,12.16
2019-05-25T03:09:11.367Z,12.08
2019-05-25T03:10:11.358Z,11.96
2019-05-25T03:11:11.335Z,11.96
2019-05-25T03:12:11.344Z,11.79
2019-05-25T03:13:11.313Z,11.67
2019-05-25T03:14:11.312Z,11.62
2019-05-25T03:15:11.318Z,11.59
2019-05-25T03:16:11.316Z,11.66
2019-05-25T03:17:11.270Z,11.59
2019-05-25T03:18:11.258Z,11.57
2019-05-25T03:19:11.249Z,11.57
2019-05-25T03:20:11.247Z,11.45
2019-05-25T03:21:11.226Z,11.42
2019-05-25T03:22:11.249Z,11.48
2019-05-25T03:23:11.203Z,11.54
2019-05-25T03:24:11.192Z,11.59
2019-05-25T03:25:11.193Z,11.72
2019-05-25T03:26:11.169Z,11.72
2019-05-25T03:27:11.227Z,11.81
2019-05-25T03:28:11.183Z,11.79
2019-05-25T03:29:11.140Z,11.81
2019-05-25T03:30:11.141Z,11.93
2019-05-25T03:31:11.118Z,11.88
2019-05-25T03:32:11.110Z,11.75
2019-05-25T03:33:11.097Z,11.70
2019-05-25T03:34:11.111Z,11.82
2019-05-25T03:35:11.096Z,11.98
2019-05-25T03:36:11.109Z,12.03
2019-05-25T03:37:11.073Z,12.30
2019-05-25T03:38:11.058Z,12.38
2019-05-25T03:39:11.029Z,12.49
2019-05-25T03:40:11.063Z,12.56
2019-05-25T03:41:11.008Z,12.66
2019-05-25T03:42:11.006Z,12.74
2019-05-25T03:43:11.012Z,12.87
2019-05-25T03:44:11.017Z,12.89
2019-05-25T03:45:11.020Z,12.98
2019-05-25T03:46:11.013Z,12.91
2019-05-25T03:47:11.054Z,12.95
2019-05-25T03:48:10.975Z,12.87
2019-05-25T03:49:11.062Z,12.88
2019-05-25T03:50:11.437Z,12.92
2019-05-25T03:51:10.912Z,12.91
2019-05-25T03:52:10.932Z,12.88
2019-05-25T03:53:10.902Z,13.06
2019-05-25T03:54:10.888Z,13.06
2019-05-25T03:55:10.879Z,13.16
2019-05-25T03:56:10.856Z,13.29
2019-05-25T03:57:10.832Z,13.28
2019-05-25T03:58:10.839Z,13.54
2019-05-25T03:59:10.814Z,13.47
2019-05-25T04:00:10.897Z,13.55
2019-05-25T04:01:10.917Z,13.50
2019-05-25T04:02:10.887Z,13.50
2019-05-25T04:03:10.767Z,13.41
2019-05-25T04:04:10.755Z,13.22
2019-05-25T04:05:10.745Z,13.17
2019-05-25T04:06:10.755Z,13.06
2019-05-25T04:07:10.738Z,13.01
2019-05-25T04:08:10.726Z,12.94
2019-05-25T04:09:10.705Z,12.87
2019-05-25T04:10:10.702Z,12.84
2019-05-25T04:11:10.692Z,12.69
2019-05-25T04:12:10.670Z,12.71
2019-05-25T04:13:10.661Z,12.73
2019-05-25T04:14:10.647Z,12.74
2019-05-25T04:15:10.665Z,12.70
2019-05-25T04:16:10.659Z,12.71
2019-05-25T04:17:10.637Z,12.85
2019-05-25T04:18:10.617Z,12.98
2019-05-25T04:19:10.606Z,12.99
2019-05-25T04:20:10.588Z,13.12
2019-05-25T04:21:10.585Z,13.07
2019-05-25T04:22:10.571Z,13.14
2019-05-25T04:23:10.555Z,13.04
2019-05-25T04:24:10.539Z,13.16
2019-05-25T04:25:10.543Z,13.19
2019-05-25T04:26:22.211Z,13.27
2019-05-25T04:27:11.506Z,13.29
2019-05-25T04:28:10.551Z,13.13
2019-05-25T04:29:10.488Z,13.17
2019-05-25T04:30:10.477Z,13.19
2019-05-25T04:31:10.508Z,13.21
2019-05-25T04:32:10.463Z,13.25
2019-05-25T04:33:10.474Z,13.28
2019-05-25T04:34:10.433Z,13.32
2019-05-25T04:35:10.421Z,13.25
2019-05-25T04:36:10.423Z,13.21
2019-05-25T04:37:10.409Z,13.21
2019-05-25T04:38:10.387Z,13.12
2019-05-25T04:39:10.393Z,13.03
2019-05-25T04:40:10.368Z,13.12
2019-05-25T04:41:10.377Z,13.24
2019-05-25T04:42:10.348Z,13.19
2019-05-25T04:43:10.335Z,13.31
2019-05-25T04:44:10.325Z,13.32
2019-05-25T04:45:10.335Z,13.27
2019-05-25T04:46:10.306Z,13.28
2019-05-25T04:47:24.342Z,13.27
2019-05-25T04:48:11.289Z,13.31
2019-05-25T04:49:10.268Z,13.22
2019-05-25T04:50:10.267Z,13.12
2019-05-25T04:51:10.248Z,13.09
2019-05-25T04:52:10.259Z,13.06
2019-05-25T04:53:10.226Z,12.92
2019-05-25T04:54:10.240Z,12.96
2019-05-25T04:55:10.225Z,13.03
2019-05-25T04:56:10.206Z,12.91
2019-05-25T04:57:10.279Z,12.94
2019-05-25T04:58:10.186Z,12.89
2019-05-25T04:59:10.204Z,12.79
2019-05-25T05:00:10.172Z,12.92
2019-05-25T05:01:10.158Z,13.04
2019-05-25T05:02:10.158Z,12.94
2019-05-25T05:03:10.121Z,12.87
2019-05-25T05:04:10.136Z,12.87
2019-05-25T05:05:10.112Z,12.74
2019-05-25T05:06:10.134Z,12.67
2019-05-25T05:07:10.131Z,12.67
2019-05-25T05:08:10.069Z,12.58
2019-05-25T05:09:10.056Z,12.56
2019-05-25T05:10:10.066Z,12.56
2019-05-25T05:11:10.042Z,12.54
2019-05-25T05:12:10.079Z,12.66
2019-05-25T05:13:10.052Z,12.66
2019-05-25T05:14:10.001Z,12.71
2019-05-25T05:15:09.990Z,12.84
2019-05-25T05:16:09.981Z,12.88
2019-05-25T05:17:10.167Z,13.07
2019-05-25T05:18:09.969Z,13.38
2019-05-25T05:19:09.962Z,13.54
2019-05-25T05:20:09.934Z,13.51
2019-05-25T05:21:09.924Z,13.65
2019-05-25T05:22:09.927Z,13.71
2019-05-25T05:23:09.912Z,13.84
2019-05-25T05:24:09.891Z,13.96
2019-05-25T05:25:10.685Z,14.21
2019-05-25T05:26:09.871Z,14.36
2019-05-25T05:27:09.871Z,14.52
2019-05-25T05:28:09.881Z,14.57
2019-05-25T05:29:09.861Z,14.64
2019-05-25T05:30:09.849Z,14.83
2019-05-25T05:31:22.758Z,14.94
2019-05-25T05:32:10.814Z,15.16
2019-05-25T05:33:09.793Z,15.33
2019-05-25T05:34:09.781Z,15.48
2019-05-25T05:35:09.782Z,15.58
2019-05-25T05:36:09.779Z,15.64
2019-05-25T05:37:09.771Z,15.68
2019-05-25T05:38:09.744Z,15.86
2019-05-25T05:39:09.746Z,16.32
2019-05-25T05:40:09.727Z,16.73
2019-05-25T05:41:09.704Z,17.02
2019-05-25T05:42:09.710Z,17.33
2019-05-25T05:43:09.708Z,17.71
2019-05-25T05:44:09.699Z,17.99
2019-05-25T05:45:09.663Z,18.38
2019-05-25T05:46:09.650Z,18.68
2019-05-25T05:47:10.549Z,19.30
2019-05-25T05:48:09.640Z,19.79
2019-05-25T05:49:09.621Z,20.27
2019-05-25T05:50:09.613Z,20.79
2019-05-25T05:51:09.613Z,21.19
2019-05-25T05:52:09.619Z,21.64
2019-05-25T05:53:09.588Z,21.91
2019-05-25T05:54:09.600Z,22.06
2019-05-25T05:55:09.569Z,22.33
2019-05-25T05:56:09.545Z,22.26
2019-05-25T05:57:12.593Z,22.56
2019-05-25T05:58:09.537Z,22.82
2019-05-25T05:59:09.548Z,23.07
2019-05-25T06:00:09.521Z,23.06
2019-05-25T06:01:09.519Z,22.93
2019-05-25T06:02:09.525Z,23.19
2019-05-25T06:03:09.481Z,23.53
2019-05-25T06:04:09.477Z,23.64
2019-05-25T06:05:09.479Z,23.68
2019-05-25T06:06:09.449Z,23.87
2019-05-25T06:07:09.462Z,24.12
2019-05-25T06:08:09.420Z,24.18
2019-05-25T06:09:09.427Z,24.29
2019-05-25T06:10:09.414Z,24.15
2019-05-25T06:11:09.391Z,23.94
2019-05-25T06:12:09.406Z,23.87
2019-05-25T06:13:09.357Z,23.57
2019-05-25T06:14:09.348Z,23.37
2019-05-25T06:15:09.349Z,23.60
2019-05-25T06:16:09.326Z,23.54
2019-05-25T06:17:09.315Z,23.21
2019-05-25T06:18:09.330Z,23.26
2019-05-25T06:19:09.310Z,23.19
2019-05-25T06:20:09.285Z,22.91
2019-05-25T06:21:09.304Z,22.69
2019-05-25T06:22:09.319Z,22.33
2019-05-25T06:23:12.318Z,22.08
2019-05-25T06:24:09.247Z,21.81
2019-05-25T06:25:09.251Z,21.30
2019-05-25T06:26:09.217Z,20.75
2019-05-25T06:27:09.206Z,20.51
2019-05-25T06:28:09.229Z,20.78
2019-05-25T06:29:09.231Z,20.94
2019-05-25T06:30:09.189Z,20.94
2019-05-25T06:31:09.186Z,21.37
2019-05-25T06:32:09.158Z,21.81
2019-05-25T06:33:09.157Z,21.98
2019-05-25T06:34:09.130Z,22.06
2019-05-25T06:35:09.123Z,22.42
2019-05-25T06:36:09.183Z,22.54
2019-05-25T06:37:09.178Z,22.78
2019-05-25T06:38:09.101Z,23.12
2019-05-25T06:39:09.071Z,23.57
2019-05-25T06:40:09.078Z,23.52
2019-05-25T06:41:09.071Z,22.91
2019-05-25T06:42:09.036Z,22.46
2019-05-25T06:43:09.040Z,22.72
2019-05-25T06:44:09.032Z,23.21
2019-05-25T06:45:09.027Z,23.67
2019-05-25T06:46:08.997Z,24.23
2019-05-25T06:47:09.024Z,23.92
2019-05-25T06:48:09.000Z,23.09
2019-05-25T06:49:08.963Z,23.50
2019-05-25T06:50:08.957Z,23.52
2019-05-25T06:51:08.947Z,23.75
2019-05-25T06:52:08.947Z,23.64
2019-05-25T06:53:08.946Z,23.78
2019-05-25T06:54:08.918Z,24.15
2019-05-25T06:55:08.902Z,24.48
2019-05-25T06:56:08.886Z,24.93
2019-05-25T06:57:08.884Z,24.51
2019-05-25T06:58:08.900Z,23.84
2019-05-25T06:59:08.866Z,23.84
2019-05-25T07:00:08.859Z,23.63
2019-05-25T07:01:08.839Z,23.29
2019-05-25T07:02:08.827Z,23.84
2019-05-25T07:03:08.836Z,24.05
2019-05-25T07:04:08.808Z,23.99
2019-05-25T07:05:08.817Z,23.97
2019-05-25T07:06:08.781Z,24.19
2019-05-25T07:07:08.783Z,24.46
2019-05-25T07:08:08.803Z,25.34
2019-05-25T07:09:08.743Z,24.84
2019-05-25T07:10:08.731Z,24.53
2019-05-25T07:11:08.738Z,24.89
2019-05-25T07:12:08.729Z,25.17
2019-05-25T07:13:08.716Z,25.51
2019-05-25T07:14:08.710Z,24.84
2019-05-25T07:15:08.694Z,24.79
2019-05-25T07:16:08.695Z,23.97
2019-05-25T07:17:08.748Z,23.94
2019-05-25T07:18:08.686Z,23.54
2019-05-25T07:19:08.663Z,23.82
2019-05-25T07:20:08.645Z,24.31
2019-05-25T07:21:08.646Z,24.92
2019-05-25T07:22:08.620Z,24.89
2019-05-25T07:23:08.627Z,25.46
2019-05-25T07:24:08.613Z,25.98
2019-05-25T07:25:08.579Z,26.61
2019-05-25T07:26:08.586Z,26.83
2019-05-25T07:27:08.584Z,26.69
2019-05-25T07:28:08.556Z,26.19
2019-05-25T07:29:08.548Z,25.78
2019-05-25T07:30:08.563Z,25.36
2019-05-25T07:31:08.582Z,25.02
2019-05-25T07:32:08.600Z,24.89
2019-05-25T07:33:08.628Z,24.82
2019-05-25T07:34:08.520Z,23.96
2019-05-25T07:35:08.549Z,24.16
2019-05-25T07:36:08.515Z,24.21
2019-05-25T07:37:08.445Z,24.44
2019-05-25T07:38:08.487Z,24.30
2019-05-25T07:39:08.509Z,24.67
2019-05-25T07:40:08.426Z,24.42
2019-05-25T07:41:08.398Z,24.45
2019-05-25T07:42:08.411Z,24.39
2019-05-25T07:43:08.389Z,24.24
2019-05-25T07:44:08.378Z,24.19
2019-05-25T07:45:08.378Z,23.64
2019-05-25T07:46:08.548Z,24.05
2019-05-25T07:47:08.439Z,24.67
2019-05-25T07:48:08.434Z,25.48
2019-05-25T07:49:08.978Z,25.66
2019-05-25T07:50:08.304Z,26.01
2019-05-25T07:51:08.541Z,25.79
2019-05-25T07:52:08.295Z,25.12
2019-05-25T07:53:08.265Z,25.20
2019-05-25T07:54:08.271Z,25.27
2019-05-25T07:55:08.268Z,24.86
2019-05-25T07:56:08.244Z,24.79
2019-05-25T07:57:08.234Z,25.46
2019-05-25T07:58:17.528Z,25.54
2019-05-25T07:59:09.220Z,25.91
2019-05-25T08:00:08.214Z,26.06
2019-05-25T08:01:08.188Z,26.61
2019-05-25T08:02:08.178Z,26.93
2019-05-25T08:03:08.176Z,26.88
2019-05-25T08:04:08.189Z,26.84
2019-05-25T08:05:08.211Z,26.68
2019-05-25T08:06:08.154Z,26.56
2019-05-25T08:07:08.134Z,26.72
2019-05-25T08:08:08.104Z,27.01
2019-05-25T08:09:08.146Z,27.24
2019-05-25T08:10:08.106Z,27.49
2019-05-25T08:11:08.137Z,27.42
2019-05-25T08:12:08.081Z,27.88
2019-05-25T08:13:08.072Z,28.13
2019-05-25T08:14:08.088Z,28.03
2019-05-25T08:15:08.068Z,27.62
2019-05-25T08:16:08.022Z,27.28
2019-05-25T08:17:08.015Z,27.74
2019-05-25T08:18:07.995Z,27.69
2019-05-25T08:19:08.012Z,28.01
2019-05-25T08:20:08.023Z,28.23
2019-05-25T08:21:08.030Z,28.39
2019-05-25T08:22:07.982Z,28.45
2019-05-25T08:23:07.949Z,28.55
2019-05-25T08:24:07.944Z,28.39
2019-05-25T08:25:07.928Z,28.27
2019-05-25T08:26:07.958Z,28.33
2019-05-25T08:27:07.898Z,28.13
2019-05-25T08:28:07.893Z,28.39
2019-05-25T08:29:07.894Z,28.62
2019-05-25T08:30:07.893Z,28.20
2019-05-25T08:31:07.872Z,28.06
2019-05-25T08:32:07.853Z,28.18
2019-05-25T08:33:07.856Z,28.35
2019-05-25T08:34:07.842Z,28.35
2019-05-25T08:35:07.834Z,28.33
2019-05-25T08:36:07.805Z,28.55
2019-05-25T08:37:07.799Z,28.43
2019-05-25T08:38:07.779Z,28.77
2019-05-25T08:39:07.788Z,28.88
2019-05-25T08:40:07.846Z,28.83
2019-05-25T08:41:07.750Z,29.03
2019-05-25T08:42:07.743Z,29.07
2019-05-25T08:43:07.731Z,28.72
2019-05-25T08:44:07.725Z,28.35
2019-05-25T08:45:07.716Z,28.14
2019-05-25T08:46:07.696Z,28.13
2019-05-25T08:47:07.688Z,28.24
2019-05-25T08:48:07.679Z,28.36
2019-05-25T08:49:07.662Z,28.24
2019-05-25T08:50:07.679Z,28.38
2019-05-25T08:51:07.646Z,28.43
2019-05-25T08:52:07.734Z,28.33
2019-05-25T08:53:07.622Z,28.54
2019-05-25T08:54:07.610Z,28.35
2019-05-25T08:55:07.623Z,28.57
2019-05-25T08:56:07.587Z,28.76
2019-05-25T08:57:07.583Z,28.69
2019-05-25T08:58:07.567Z,28.74
2019-05-25T08:59:07.586Z,28.60
2019-05-25T09:00:08.076Z,28.15
2019-05-25T09:01:07.557Z,28.06
2019-05-25T09:02:07.587Z,28.13
2019-05-25T09:03:07.515Z,28.33
2019-05-25T09:04:07.510Z,28.46
2019-05-25T09:05:07.521Z,28.65
2019-05-25T09:06:07.483Z,28.45
2019-05-25T09:07:07.470Z,28.13
2019-05-25T09:08:07.462Z,27.93
2019-05-25T09:09:07.453Z,27.90
2019-05-25T09:10:07.453Z,28.42
2019-05-25T09:11:07.444Z,28.79
2019-05-25T09:12:07.432Z,29.36
2019-05-25T09:13:07.438Z,29.49
2019-05-25T09:14:07.475Z,29.66
2019-05-25T09:15:07.487Z,29.71
2019-05-25T09:16:07.460Z,29.42
2019-05-25T09:17:07.469Z,29.10
2019-05-25T09:18:07.513Z,29.33
2019-05-25T09:19:07.347Z,29.07
2019-05-25T09:20:07.347Z,28.32
2019-05-25T09:21:07.349Z,27.76
2019-05-25T09:22:07.317Z,27.39
2019-05-25T09:23:07.308Z,27.68
2019-05-25T09:24:07.297Z,27.88
2019-05-25T09:25:07.300Z,27.88
2019-05-25T09:26:07.270Z,27.95
2019-05-25T09:27:07.263Z,27.90
2019-05-25T09:28:07.255Z,28.27
2019-05-25T09:29:07.241Z,28.30
2019-05-25T09:30:07.250Z,28.36
2019-05-25T09:31:07.239Z,28.61
2019-05-25T09:32:07.329Z,28.74
2019-05-25T09:33:07.211Z,29.03
2019-05-25T09:34:07.194Z,29.20
2019-05-25T09:35:07.196Z,28.88
2019-05-25T09:36:07.189Z,28.97
2019-05-25T09:37:07.162Z,28.95
2019-05-25T09:38:07.154Z,29.00
2019-05-25T09:39:07.151Z,29.05
2019-05-25T09:40:07.178Z,29.18
2019-05-25T09:41:07.120Z,29.32
2019-05-25T09:42:07.108Z,29.44
2019-05-25T09:43:07.337Z,29.35
2019-05-25T09:44:07.209Z,29.00
2019-05-25T09:45:07.228Z,29.54
2019-05-25T09:46:07.067Z,29.78
2019-05-25T09:47:07.058Z,29.73
2019-05-25T09:48:07.058Z,29.49
2019-05-25T09:49:07.039Z,29.49
2019-05-25T09:50:07.041Z,29.99
2019-05-25T09:51:15.281Z,30.13
2019-05-25T09:52:08.004Z,29.67
2019-05-25T09:53:06.996Z,29.37
2019-05-25T09:54:06.985Z,29.08
2019-05-25T09:55:06.987Z,28.98
2019-05-25T09:56:06.969Z,28.80
2019-05-25T09:57:06.985Z,28.94
2019-05-25T09:58:06.946Z,28.74
2019-05-25T09:59:19.295Z,29.00
2019-05-25T10:00:07.948Z,29.03
2019-05-25T10:01:06.917Z,29.21
2019-05-25T10:02:06.905Z,29.51
2019-05-25T10:03:06.916Z,29.70
2019-05-25T10:04:06.890Z,29.55
2019-05-25T10:05:06.892Z,29.79
2019-05-25T10:06:12.006Z,30.04
2019-05-25T10:07:07.855Z,30.07
2019-05-25T10:08:06.891Z,29.71
2019-05-25T10:09:06.871Z,29.62
2019-05-25T10:10:06.983Z,29.79
2019-05-25T10:11:06.827Z,29.91
2019-05-25T10:12:06.807Z,29.73
2019-05-25T10:13:06.798Z,29.74
2019-05-25T10:14:06.785Z,29.79
2019-05-25T10:15:06.776Z,29.62
2019-05-25T10:16:06.799Z,29.55
2019-05-25T10:17:06.754Z,29.57
2019-05-25T10:18:06.745Z,29.05
2019-05-25T10:19:06.735Z,28.88
2019-05-25T10:20:06.728Z,29.33
2019-05-25T10:21:06.727Z,29.74
2019-05-25T10:22:06.741Z,29.11
2019-05-25T10:23:06.708Z,29.21
2019-05-25T10:24:06.718Z,28.52
2019-05-25T10:25:06.716Z,28.15
2019-05-25T10:26:06.804Z,28.13
2019-05-25T10:27:06.666Z,27.68
2019-05-25T10:28:06.713Z,27.08
2019-05-25T10:29:06.644Z,26.94
2019-05-25T10:30:06.627Z,26.49
2019-05-25T10:31:06.628Z,25.56
2019-05-25T10:32:06.605Z,25.30
2019-05-25T10:33:06.597Z,25.12
2019-05-25T10:34:06.585Z,25.14
2019-05-25T10:35:06.581Z,24.94
2019-05-25T10:36:06.577Z,25.35
2019-05-25T10:37:06.555Z,25.82
2019-05-25T10:38:06.546Z,26.20
2019-05-25T10:39:06.538Z,26.36
2019-05-25T10:40:06.528Z,25.96
2019-05-25T10:41:06.531Z,25.53
2019-05-25T10:42:06.507Z,25.11
2019-05-25T10:43:06.497Z,25.02
2019-05-25T10:44:06.491Z,24.79
2019-05-25T10:45:06.494Z,24.77
2019-05-25T10:46:06.478Z,24.90
2019-05-25T10:47:06.461Z,24.80
2019-05-25T10:48:06.469Z,25.39
2019-05-25T10:49:06.437Z,25.31
2019-05-25T10:50:06.429Z,25.66
2019-05-25T10:51:06.435Z,26.27
2019-05-25T10:52:06.409Z,25.98
2019-05-25T10:53:06.405Z,25.61
2019-05-25T10:54:06.393Z,25.75
2019-05-25T10:55:06.382Z,25.59
2019-05-25T10:56:06.382Z,25.57
2019-05-25T10:57:06.360Z,25.16
2019-05-25T10:58:06.350Z,25.69
2019-05-25T10:59:06.365Z,26.36
2019-05-25T11:00:06.334Z,26.36
2019-05-25T11:01:06.330Z,25.98
2019-05-25T11:02:06.316Z,25.69
2019-05-25T11:03:06.302Z,25.69
2019-05-25T11:04:06.292Z,26.19
2019-05-25T11:05:06.278Z,25.66
2019-05-25T11:06:06.281Z,25.12
2019-05-25T11:07:06.259Z,25.12
2019-05-25T11:08:06.248Z,25.31
2019-05-25T11:09:06.239Z,25.66
2019-05-25T11:10:06.229Z,25.94
2019-05-25T11:11:06.242Z,26.44
2019-05-25T11:12:06.208Z,25.61
2019-05-25T11:13:06.201Z,25.48
2019-05-25T11:14:06.189Z,25.48
2019-05-25T11:15:06.180Z,25.29
2019-05-25T11:16:06.203Z,25.49
2019-05-25T11:17:06.163Z,25.29
2019-05-25T11:18:06.157Z,25.34
2019-05-25T11:19:06.146Z,25.49
2019-05-25T11:20:06.130Z,25.29
2019-05-25T11:21:06.150Z,24.99
2019-05-25T11:22:06.126Z,25.12
2019-05-25T11:23:06.106Z,24.46
2019-05-25T11:24:06.095Z,23.96
2019-05-25T11:25:06.085Z,23.71
2019-05-25T11:26:06.084Z,23.42
2019-05-25T11:27:06.063Z,23.47
2019-05-25T11:28:08.302Z,23.41
2019-05-25T11:29:06.052Z,23.04
2019-05-25T11:30:09.484Z,22.93
2019-05-25T11:31:06.038Z,22.63
2019-05-25T11:32:07.508Z,22.72
2019-05-25T11:33:06.030Z,22.74
2019-05-25T11:34:06.014Z,22.64
2019-05-25T11:35:06.115Z,22.70
2019-05-25T11:36:06.105Z,22.54
2019-05-25T11:37:06.055Z,22.41
2019-05-25T11:38:06.023Z,22.44
2019-05-25T11:39:05.976Z,22.44
2019-05-25T11:40:06.107Z,22.60
2019-05-25T11:41:05.936Z,22.61
2019-05-25T11:42:05.928Z,22.63
2019-05-25T11:43:05.892Z,22.70
2019-05-25T11:44:05.933Z,22.64
2019-05-25T11:45:05.883Z,22.69
2019-05-25T11:46:05.882Z,22.67
2019-05-25T11:47:05.854Z,22.66
2019-05-25T11:48:05.848Z,22.70
2019-05-25T11:49:21.407Z,22.61
2019-05-25T11:50:06.858Z,22.46
2019-05-25T11:51:05.904Z,22.45
2019-05-25T11:52:05.801Z,22.41
2019-05-25T11:53:06.196Z,22.49
2019-05-25T11:54:05.786Z,22.41
2019-05-25T11:55:05.765Z,22.42
2019-05-25T11:56:05.783Z,22.36
2019-05-25T11:57:05.766Z,22.35
2019-05-25T11:58:05.735Z,22.29
2019-05-25T11:59:05.726Z,22.42
2019-05-25T12:00:05.720Z,22.41
2019-05-25T12:01:05.711Z,22.31
2019-05-25T12:02:05.688Z,22.76
2019-05-25T12:03:05.680Z,24.11
2019-05-25T12:04:05.674Z,24.82
2019-05-25T12:05:05.667Z,25.35
2019-05-25T12:06:05.660Z,25.45
2019-05-25T12:07:05.638Z,25.98
2019-05-25T12:08:05.626Z,25.63
2019-05-25T12:09:05.614Z,25.66
2019-05-25T12:10:05.620Z,25.49
2019-05-25T12:11:05.613Z,25.54
2019-05-25T12:12:05.604Z,26.00
2019-05-25T12:13:05.574Z,26.08
2019-05-25T12:14:05.567Z,25.72
2019-05-25T12:15:05.567Z,26.08
2019-05-25T12:16:05.562Z,25.45
2019-05-25T12:17:05.531Z,25.44
2019-05-25T12:18:05.544Z,25.83
2019-05-25T12:19:05.513Z,26.64
2019-05-25T12:20:05.516Z,27.11
2019-05-25T12:21:05.681Z,27.01
2019-05-25T12:22:05.489Z,26.08
2019-05-25T12:23:05.503Z,26.11
2019-05-25T12:24:05.461Z,26.04
2019-05-25T12:25:05.452Z,25.67
2019-05-25T12:26:05.444Z,25.67
2019-05-25T12:27:05.448Z,25.93
2019-05-25T12:28:05.421Z,26.21
2019-05-25T12:29:05.410Z,26.00
2019-05-25T12:30:05.404Z,26.24
2019-05-25T12:31:05.392Z,26.66
2019-05-25T12:32:05.392Z,26.53
2019-05-25T12:33:05.376Z,26.50
2019-05-25T12:34:05.359Z,26.42
2019-05-25T12:35:05.362Z,26.96
2019-05-25T12:36:05.363Z,27.33
2019-05-25T12:37:05.342Z,27.71
2019-05-25T12:38:05.325Z,27.74
2019-05-25T12:39:05.310Z,27.81
2019-05-25T12:40:05.305Z,27.68
2019-05-25T12:41:05.294Z,27.80
2019-05-25T12:42:05.295Z,27.45
2019-05-25T12:43:05.268Z,27.74
2019-05-25T12:44:05.263Z,27.72
2019-05-25T12:45:05.251Z,26.96
2019-05-25T12:46:05.238Z,26.90
2019-05-25T12:47:05.243Z,27.09
2019-05-25T12:48:05.217Z,27.27
2019-05-25T12:49:05.208Z,27.18
2019-05-25T12:50:05.247Z,27.15
2019-05-25T12:51:05.207Z,27.40
2019-05-25T12:52:05.200Z,27.95
2019-05-25T12:53:05.289Z,28.40